sensor_id;sensor_type;location;lat;lon;timestamp;P1;durP1;ratioP1;P2;durP2;ratioP2
39078;SDS011;24829;49.208;12.080;2024-02-15T00:02:14;12.82;;;9.25;;
39078;SDS011;24829;49.208;12.080;2024-02-15T00:04:40;16.50;;;9.15;;
39078;SDS011;24829;49.208;12.080;2024-02-15T00:07:06;16.85;;;10.55;;
39078;SDS011;24829;49.208;12.080;2024-02-15T00:09:32;15.32;;;9.27;;
39078;SDS011;24829;49.208;12.080;2024-02-15T00:11:58;17.80;;;9.68;;
39078;SDS011;24829;49.208;12.080;2024-02-15T00:14:25;12.23;;;8.95;;
39078;SDS011;24829;49.208;12.080;2024-02-15T00:16:52;18.73;;;10.88;;
39078;SDS011;24829;49.208;12.080;2024-02-15T00:19:18;16.40;;;9.50;;
39078;SDS011;24829;49.208;12.080;2024-02-15T00:21:43;14.75;;;8.68;;
39078;SDS011;24829;49.208;12.080;2024-02-15T00:24:09;15.10;;;9.20;;
39078;SDS011;24829;49.208;12.080;2024-02-15T00:26:35;14.60;;;9.57;;
39078;SDS011;24829;49.208;12.080;2024-02-15T00:29:01;10.60;;;8.48;;
39078;SDS011;24829;49.208;12.080;2024-02-15T00:31:26;13.85;;;8.00;;
39078;SDS011;24829;49.208;12.080;2024-02-15T00:33:52;12.52;;;8.02;;
39078;SDS011;24829;49.208;12.080;2024-02-15T00:36:19;12.35;;;8.60;;
39078;SDS011;24829;49.208;12.080;2024-02-15T00:38:44;16.45;;;9.38;;
39078;SDS011;24829;49.208;12.080;2024-02-15T00:41:10;16.70;;;8.35;;
39078;SDS011;24829;49.208;12.080;2024-02-15T00:43:36;16.80;;;8.82;;
39078;SDS011;24829;49.208;12.080;2024-02-15T00:46:01;13.68;;;7.97;;
39078;SDS011;24829;49.208;12.080;2024-02-15T00:48:27;13.10;;;8.80;;
39078;SDS011;24829;49.208;12.080;2024-02-15T00:50:55;12.75;;;8.80;;
39078;SDS011;24829;49.208;12.080;2024-02-15T00:53:20;17.58;;;9.75;;
39078;SDS011;24829;49.208;12.080;2024-02-15T00:55:46;13.02;;;8.82;;
39078;SDS011;24829;49.208;12.080;2024-02-15T00:58:12;11.55;;;8.02;;
39078;SDS011;24829;49.208;12.080;2024-02-15T01:00:37;11.85;;;8.55;;
39078;SDS011;24829;49.208;12.080;2024-02-15T01:03:03;11.10;;;8.50;;
39078;SDS011;24829;49.208;12.080;2024-02-15T01:05:29;17.75;;;8.75;;
39078;SDS011;24829;49.208;12.080;2024-02-15T01:07:55;13.57;;;8.05;;
39078;SDS011;24829;49.208;12.080;2024-02-15T01:10:21;14.05;;;9.20;;
39078;SDS011;24829;49.208;12.080;2024-02-15T01:12:48;14.50;;;8.85;;
39078;SDS011;24829;49.208;12.080;2024-02-15T01:15:14;14.73;;;9.27;;
39078;SDS011;24829;49.208;12.080;2024-02-15T01:17:43;12.65;;;8.68;;
39078;SDS011;24829;49.208;12.080;2024-02-15T01:20:09;11.85;;;8.93;;
39078;SDS011;24829;49.208;12.080;2024-02-15T01:22:35;12.45;;;8.57;;
39078;SDS011;24829;49.208;12.080;2024-02-15T01:25:01;14.82;;;9.68;;
39078;SDS011;24829;49.208;12.080;2024-02-15T01:27:27;11.35;;;8.32;;
39078;SDS011;24829;49.208;12.080;2024-02-15T01:29:55;17.70;;;9.05;;
39078;SDS011;24829;49.208;12.080;2024-02-15T01:32:21;22.05;;;9.90;;
39078;SDS011;24829;49.208;12.080;2024-02-15T01:34:47;14.30;;;9.45;;
39078;SDS011;24829;49.208;12.080;2024-02-15T01:37:12;15.25;;;9.50;;
39078;SDS011;24829;49.208;12.080;2024-02-15T01:39:38;11.90;;;9.70;;
39078;SDS011;24829;49.208;12.080;2024-02-15T01:42:05;16.33;;;9.35;;
39078;SDS011;24829;49.208;12.080;2024-02-15T01:44:31;15.68;;;9.43;;
39078;SDS011;24829;49.208;12.080;2024-02-15T01:46:56;14.18;;;8.80;;
39078;SDS011;24829;49.208;12.080;2024-02-15T01:49:23;16.60;;;10.07;;
39078;SDS011;24829;49.208;12.080;2024-02-15T01:51:51;13.52;;;8.77;;
39078;SDS011;24829;49.208;12.080;2024-02-15T01:54:18;12.48;;;9.23;;
39078;SDS011;24829;49.208;12.080;2024-02-15T01:56:44;11.15;;;7.97;;
39078;SDS011;24829;49.208;12.080;2024-02-15T01:59:10;11.48;;;8.55;;
39078;SDS011;24829;49.208;12.080;2024-02-15T02:01:38;14.75;;;9.30;;
39078;SDS011;24829;49.208;12.080;2024-02-15T02:04:04;16.25;;;9.25;;
39078;SDS011;24829;49.208;12.080;2024-02-15T02:06:30;11.77;;;8.90;;
39078;SDS011;24829;49.208;12.080;2024-02-15T02:08:56;13.05;;;9.40;;
39078;SDS011;24829;49.208;12.080;2024-02-15T02:11:23;11.88;;;8.65;;
39078;SDS011;24829;49.208;12.080;2024-02-15T02:13:49;12.38;;;8.68;;
39078;SDS011;24829;49.208;12.080;2024-02-15T02:16:29;18.58;;;10.80;;
39078;SDS011;24829;49.208;12.080;2024-02-15T02:18:57;13.48;;;9.05;;
39078;SDS011;24829;49.208;12.080;2024-02-15T02:21:24;12.18;;;9.13;;
39078;SDS011;24829;49.208;12.080;2024-02-15T02:23:57;13.98;;;9.20;;
39078;SDS011;24829;49.208;12.080;2024-02-15T02:26:23;13.02;;;9.18;;
39078;SDS011;24829;49.208;12.080;2024-02-15T02:28:50;16.70;;;9.95;;
39078;SDS011;24829;49.208;12.080;2024-02-15T02:31:18;14.13;;;10.43;;
39078;SDS011;24829;49.208;12.080;2024-02-15T02:33:47;13.75;;;9.23;;
39078;SDS011;24829;49.208;12.080;2024-02-15T02:36:17;15.75;;;9.60;;
39078;SDS011;24829;49.208;12.080;2024-02-15T02:38:43;14.65;;;10.77;;
39078;SDS011;24829;49.208;12.080;2024-02-15T02:41:10;14.45;;;10.45;;
39078;SDS011;24829;49.208;12.080;2024-02-15T02:43:37;14.15;;;11.27;;
39078;SDS011;24829;49.208;12.080;2024-02-15T02:46:06;15.75;;;10.90;;
39078;SDS011;24829;49.208;12.080;2024-02-15T02:48:31;18.35;;;10.88;;
39078;SDS011;24829;49.208;12.080;2024-02-15T02:50:57;13.88;;;11.40;;
39078;SDS011;24829;49.208;12.080;2024-02-15T02:53:23;15.25;;;11.30;;
39078;SDS011;24829;49.208;12.080;2024-02-15T02:55:49;17.95;;;11.45;;
39078;SDS011;24829;49.208;12.080;2024-02-15T02:58:16;14.20;;;10.57;;
39078;SDS011;24829;49.208;12.080;2024-02-15T03:00:42;15.32;;;11.40;;
39078;SDS011;24829;49.208;12.080;2024-02-15T03:03:07;16.00;;;12.00;;
39078;SDS011;24829;49.208;12.080;2024-02-15T03:05:34;27.67;;;13.23;;
39078;SDS011;24829;49.208;12.080;2024-02-15T03:08:00;17.17;;;11.45;;
39078;SDS011;24829;49.208;12.080;2024-02-15T03:10:25;19.52;;;11.65;;
39078;SDS011;24829;49.208;12.080;2024-02-15T03:12:51;16.17;;;11.63;;
39078;SDS011;24829;49.208;12.080;2024-02-15T03:15:17;16.52;;;11.27;;
39078;SDS011;24829;49.208;12.080;2024-02-15T03:17:44;13.93;;;9.70;;
39078;SDS011;24829;49.208;12.080;2024-02-15T03:20:11;14.63;;;10.45;;
39078;SDS011;24829;49.208;12.080;2024-02-15T03:22:53;13.85;;;10.13;;
39078;SDS011;24829;49.208;12.080;2024-02-15T03:25:19;15.82;;;10.75;;
39078;SDS011;24829;49.208;12.080;2024-02-15T03:27:48;17.02;;;11.93;;
39078;SDS011;24829;49.208;12.080;2024-02-15T03:30:16;12.80;;;10.65;;
39078;SDS011;24829;49.208;12.080;2024-02-15T03:32:44;18.33;;;12.35;;
39078;SDS011;24829;49.208;12.080;2024-02-15T03:35:10;14.43;;;10.43;;
39078;SDS011;24829;49.208;12.080;2024-02-15T03:37:39;16.75;;;11.45;;
39078;SDS011;24829;49.208;12.080;2024-02-15T03:40:05;18.25;;;11.98;;
39078;SDS011;24829;49.208;12.080;2024-02-15T03:42:31;16.10;;;11.60;;
39078;SDS011;24829;49.208;12.080;2024-02-15T03:44:56;17.45;;;11.05;;
39078;SDS011;24829;49.208;12.080;2024-02-15T03:47:22;16.92;;;11.90;;
39078;SDS011;24829;49.208;12.080;2024-02-15T03:49:48;17.83;;;11.73;;
39078;SDS011;24829;49.208;12.080;2024-02-15T03:52:14;16.00;;;11.63;;
39078;SDS011;24829;49.208;12.080;2024-02-15T03:54:40;17.92;;;12.32;;
39078;SDS011;24829;49.208;12.080;2024-02-15T03:57:08;17.55;;;12.25;;
39078;SDS011;24829;49.208;12.080;2024-02-15T03:59:33;18.15;;;12.10;;
39078;SDS011;24829;49.208;12.080;2024-02-15T04:02:00;17.95;;;11.88;;
39078;SDS011;24829;49.208;12.080;2024-02-15T04:04:28;17.83;;;12.82;;
39078;SDS011;24829;49.208;12.080;2024-02-15T04:06:55;21.35;;;12.70;;
39078;SDS011;24829;49.208;12.080;2024-02-15T04:09:21;17.63;;;12.68;;
39078;SDS011;24829;49.208;12.080;2024-02-15T04:11:47;14.38;;;11.32;;
39078;SDS011;24829;49.208;12.080;2024-02-15T04:14:17;17.13;;;12.23;;
39078;SDS011;24829;49.208;12.080;2024-02-15T04:16:43;16.92;;;11.55;;
39078;SDS011;24829;49.208;12.080;2024-02-15T04:19:12;19.98;;;11.73;;
39078;SDS011;24829;49.208;12.080;2024-02-15T04:21:38;21.95;;;11.20;;
39078;SDS011;24829;49.208;12.080;2024-02-15T04:24:05;19.88;;;13.30;;
39078;SDS011;24829;49.208;12.080;2024-02-15T04:26:31;16.50;;;12.32;;
39078;SDS011;24829;49.208;12.080;2024-02-15T04:28:58;18.00;;;13.25;;
39078;SDS011;24829;49.208;12.080;2024-02-15T04:31:24;18.27;;;13.20;;
39078;SDS011;24829;49.208;12.080;2024-02-15T04:33:53;15.95;;;11.70;;
39078;SDS011;24829;49.208;12.080;2024-02-15T04:36:19;17.02;;;12.50;;
39078;SDS011;24829;49.208;12.080;2024-02-15T04:38:50;17.33;;;13.27;;
39078;SDS011;24829;49.208;12.080;2024-02-15T04:41:17;20.30;;;13.82;;
39078;SDS011;24829;49.208;12.080;2024-02-15T04:43:51;18.55;;;14.07;;
39078;SDS011;24829;49.208;12.080;2024-02-15T04:46:17;18.33;;;13.18;;
39078;SDS011;24829;49.208;12.080;2024-02-15T04:48:47;19.48;;;13.75;;
39078;SDS011;24829;49.208;12.080;2024-02-15T04:51:14;19.88;;;14.52;;
39078;SDS011;24829;49.208;12.080;2024-02-15T04:53:41;22.25;;;13.70;;
39078;SDS011;24829;49.208;12.080;2024-02-15T04:56:11;19.45;;;13.15;;
39078;SDS011;24829;49.208;12.080;2024-02-15T04:58:41;22.73;;;14.60;;
39078;SDS011;24829;49.208;12.080;2024-02-15T05:01:12;23.95;;;15.13;;
39078;SDS011;24829;49.208;12.080;2024-02-15T05:03:41;22.10;;;15.10;;
39078;SDS011;24829;49.208;12.080;2024-02-15T05:06:10;24.85;;;17.38;;
39078;SDS011;24829;49.208;12.080;2024-02-15T05:08:38;21.25;;;15.23;;
39078;SDS011;24829;49.208;12.080;2024-02-15T05:11:11;19.95;;;13.70;;
39078;SDS011;24829;49.208;12.080;2024-02-15T05:13:42;21.92;;;14.60;;
39078;SDS011;24829;49.208;12.080;2024-02-15T05:16:11;36.08;;;22.02;;
39078;SDS011;24829;49.208;12.080;2024-02-15T05:18:37;24.02;;;16.40;;
39078;SDS011;24829;49.208;12.080;2024-02-15T05:21:05;19.38;;;13.15;;
39078;SDS011;24829;49.208;12.080;2024-02-15T05:23:34;26.25;;;15.25;;
39078;SDS011;24829;49.208;12.080;2024-02-15T05:26:04;26.70;;;16.15;;
39078;SDS011;24829;49.208;12.080;2024-02-15T05:28:30;21.45;;;15.45;;
39078;SDS011;24829;49.208;12.080;2024-02-15T05:33:42;22.48;;;14.75;;
39078;SDS011;24829;49.208;12.080;2024-02-15T05:36:12;21.05;;;14.18;;
39078;SDS011;24829;49.208;12.080;2024-02-15T05:38:39;23.10;;;15.02;;
39078;SDS011;24829;49.208;12.080;2024-02-15T05:41:05;23.08;;;15.63;;
39078;SDS011;24829;49.208;12.080;2024-02-15T05:43:33;21.58;;;15.57;;
39078;SDS011;24829;49.208;12.080;2024-02-15T05:46:01;23.10;;;15.68;;
39078;SDS011;24829;49.208;12.080;2024-02-15T05:48:27;21.85;;;14.68;;
39078;SDS011;24829;49.208;12.080;2024-02-15T05:50:54;19.73;;;14.93;;
39078;SDS011;24829;49.208;12.080;2024-02-15T05:53:20;23.95;;;13.77;;
39078;SDS011;24829;49.208;12.080;2024-02-15T05:55:46;19.50;;;14.35;;
39078;SDS011;24829;49.208;12.080;2024-02-15T05:58:14;15.43;;;13.30;;
39078;SDS011;24829;49.208;12.080;2024-02-15T06:00:40;24.05;;;12.95;;
39078;SDS011;24829;49.208;12.080;2024-02-15T06:03:12;17.42;;;13.02;;
39078;SDS011;24829;49.208;12.080;2024-02-15T06:05:38;22.55;;;12.93;;
39078;SDS011;24829;49.208;12.080;2024-02-15T06:08:04;15.20;;;12.27;;
39078;SDS011;24829;49.208;12.080;2024-02-15T06:10:30;23.33;;;14.07;;
39078;SDS011;24829;49.208;12.080;2024-02-15T06:12:56;18.00;;;13.60;;
39078;SDS011;24829;49.208;12.080;2024-02-15T06:15:25;17.67;;;13.32;;
39078;SDS011;24829;49.208;12.080;2024-02-15T06:17:52;19.30;;;12.70;;
39078;SDS011;24829;49.208;12.080;2024-02-15T06:20:18;19.42;;;12.38;;
39078;SDS011;24829;49.208;12.080;2024-02-15T06:22:44;16.45;;;13.20;;
39078;SDS011;24829;49.208;12.080;2024-02-15T06:25:11;21.30;;;13.85;;
39078;SDS011;24829;49.208;12.080;2024-02-15T06:27:38;18.65;;;12.63;;
39078;SDS011;24829;49.208;12.080;2024-02-15T06:30:10;19.75;;;12.45;;
39078;SDS011;24829;49.208;12.080;2024-02-15T06:32:55;16.67;;;12.77;;
39078;SDS011;24829;49.208;12.080;2024-02-15T06:35:39;15.60;;;12.43;;
39078;SDS011;24829;49.208;12.080;2024-02-15T06:38:23;20.13;;;12.70;;
39078;SDS011;24829;49.208;12.080;2024-02-15T06:41:07;23.02;;;12.82;;
39078;SDS011;24829;49.208;12.080;2024-02-15T06:43:34;18.67;;;12.50;;
39078;SDS011;24829;49.208;12.080;2024-02-15T06:46:00;23.92;;;12.40;;
39078;SDS011;24829;49.208;12.080;2024-02-15T06:48:26;19.88;;;13.00;;
39078;SDS011;24829;49.208;12.080;2024-02-15T06:50:52;19.63;;;12.50;;
39078;SDS011;24829;49.208;12.080;2024-02-15T06:53:18;21.98;;;12.48;;
39078;SDS011;24829;49.208;12.080;2024-02-15T06:55:45;20.77;;;12.82;;
39078;SDS011;24829;49.208;12.080;2024-02-15T06:58:14;18.42;;;13.25;;
39078;SDS011;24829;49.208;12.080;2024-02-15T07:00:41;19.23;;;12.50;;
39078;SDS011;24829;49.208;12.080;2024-02-15T07:03:07;17.63;;;12.55;;
39078;SDS011;24829;49.208;12.080;2024-02-15T07:05:34;15.88;;;11.23;;
39078;SDS011;24829;49.208;12.080;2024-02-15T07:07:59;18.90;;;11.90;;
39078;SDS011;24829;49.208;12.080;2024-02-15T07:10:25;15.90;;;12.88;;
39078;SDS011;24829;49.208;12.080;2024-02-15T07:12:51;15.20;;;11.80;;
39078;SDS011;24829;49.208;12.080;2024-02-15T07:15:17;16.58;;;12.07;;
39078;SDS011;24829;49.208;12.080;2024-02-15T07:17:42;21.92;;;12.98;;
39078;SDS011;24829;49.208;12.080;2024-02-15T07:20:10;16.90;;;11.57;;
39078;SDS011;24829;49.208;12.080;2024-02-15T07:22:38;16.13;;;10.98;;
39078;SDS011;24829;49.208;12.080;2024-02-15T07:25:04;13.57;;;10.68;;
39078;SDS011;24829;49.208;12.080;2024-02-15T07:27:30;18.63;;;12.50;;
39078;SDS011;24829;49.208;12.080;2024-02-15T07:29:57;23.52;;;12.00;;
39078;SDS011;24829;49.208;12.080;2024-02-15T07:32:23;18.17;;;11.23;;
39078;SDS011;24829;49.208;12.080;2024-02-15T07:34:48;18.63;;;11.45;;
39078;SDS011;24829;49.208;12.080;2024-02-15T07:37:14;20.98;;;11.82;;
39078;SDS011;24829;49.208;12.080;2024-02-15T07:39:41;20.80;;;11.85;;
39078;SDS011;24829;49.208;12.080;2024-02-15T07:42:06;15.52;;;11.35;;
39078;SDS011;24829;49.208;12.080;2024-02-15T07:44:35;16.10;;;11.90;;
39078;SDS011;24829;49.208;12.080;2024-02-15T07:47:01;18.90;;;11.88;;
39078;SDS011;24829;49.208;12.080;2024-02-15T07:49:29;15.00;;;11.60;;
39078;SDS011;24829;49.208;12.080;2024-02-15T07:51:56;17.05;;;12.32;;
39078;SDS011;24829;49.208;12.080;2024-02-15T07:54:22;16.85;;;11.85;;
39078;SDS011;24829;49.208;12.080;2024-02-15T07:56:48;16.77;;;13.65;;
39078;SDS011;24829;49.208;12.080;2024-02-15T07:59:15;16.27;;;10.82;;
39078;SDS011;24829;49.208;12.080;2024-02-15T08:01:44;16.50;;;12.73;;
39078;SDS011;24829;49.208;12.080;2024-02-15T08:04:15;21.17;;;12.32;;
39078;SDS011;24829;49.208;12.080;2024-02-15T08:06:42;15.10;;;11.07;;
39078;SDS011;24829;49.208;12.080;2024-02-15T08:09:08;19.33;;;12.63;;
39078;SDS011;24829;49.208;12.080;2024-02-15T08:11:38;18.52;;;12.93;;
39078;SDS011;24829;49.208;12.080;2024-02-15T08:14:07;23.02;;;13.10;;
39078;SDS011;24829;49.208;12.080;2024-02-15T08:16:35;18.05;;;12.57;;
39078;SDS011;24829;49.208;12.080;2024-02-15T08:19:05;22.98;;;13.05;;
39078;SDS011;24829;49.208;12.080;2024-02-15T08:21:32;23.50;;;13.13;;
39078;SDS011;24829;49.208;12.080;2024-02-15T08:24:00;18.63;;;13.75;;
39078;SDS011;24829;49.208;12.080;2024-02-15T08:26:32;22.13;;;14.20;;
39078;SDS011;24829;49.208;12.080;2024-02-15T08:28:58;22.30;;;14.60;;
39078;SDS011;24829;49.208;12.080;2024-02-15T08:31:23;15.23;;;10.30;;
39078;SDS011;24829;49.208;12.080;2024-02-15T08:33:49;16.70;;;11.57;;
39078;SDS011;24829;49.208;12.080;2024-02-15T08:36:15;18.95;;;13.32;;
39078;SDS011;24829;49.208;12.080;2024-02-15T08:38:40;19.77;;;14.38;;
39078;SDS011;24829;49.208;12.080;2024-02-15T08:41:07;20.52;;;15.00;;
39078;SDS011;24829;49.208;12.080;2024-02-15T08:43:34;19.92;;;13.77;;
39078;SDS011;24829;49.208;12.080;2024-02-15T08:45:59;24.85;;;13.93;;
39078;SDS011;24829;49.208;12.080;2024-02-15T08:48:26;20.85;;;13.88;;
39078;SDS011;24829;49.208;12.080;2024-02-15T08:50:52;18.98;;;12.82;;
39078;SDS011;24829;49.208;12.080;2024-02-15T08:53:17;18.45;;;13.18;;
39078;SDS011;24829;49.208;12.080;2024-02-15T08:55:47;19.83;;;12.82;;
39078;SDS011;24829;49.208;12.080;2024-02-15T08:58:12;24.58;;;13.63;;
39078;SDS011;24829;49.208;12.080;2024-02-15T09:00:38;21.38;;;13.23;;
39078;SDS011;24829;49.208;12.080;2024-02-15T09:03:09;16.80;;;11.65;;
39078;SDS011;24829;49.208;12.080;2024-02-15T09:05:36;18.75;;;12.32;;
39078;SDS011;24829;49.208;12.080;2024-02-15T09:08:01;15.65;;;11.57;;
39078;SDS011;24829;49.208;12.080;2024-02-15T09:10:29;16.80;;;11.07;;
39078;SDS011;24829;49.208;12.080;2024-02-15T09:12:55;16.00;;;12.32;;
39078;SDS011;24829;49.208;12.080;2024-02-15T09:15:21;13.77;;;11.23;;
39078;SDS011;24829;49.208;12.080;2024-02-15T09:17:47;17.40;;;12.30;;
39078;SDS011;24829;49.208;12.080;2024-02-15T09:20:16;19.60;;;11.93;;
39078;SDS011;24829;49.208;12.080;2024-02-15T09:22:49;16.25;;;11.80;;
39078;SDS011;24829;49.208;12.080;2024-02-15T09:25:16;14.80;;;10.13;;
39078;SDS011;24829;49.208;12.080;2024-02-15T09:27:43;14.98;;;10.48;;
39078;SDS011;24829;49.208;12.080;2024-02-15T09:30:09;15.82;;;11.23;;
39078;SDS011;24829;49.208;12.080;2024-02-15T09:32:38;13.55;;;9.93;;
39078;SDS011;24829;49.208;12.080;2024-02-15T09:35:05;15.50;;;10.43;;
39078;SDS011;24829;49.208;12.080;2024-02-15T09:37:34;13.80;;;9.23;;
39078;SDS011;24829;49.208;12.080;2024-02-15T09:40:09;12.20;;;8.15;;
39078;SDS011;24829;49.208;12.080;2024-02-15T09:42:36;12.60;;;9.02;;
39078;SDS011;24829;49.208;12.080;2024-02-15T09:45:04;11.35;;;9.18;;
39078;SDS011;24829;49.208;12.080;2024-02-15T09:47:37;14.45;;;8.95;;
39078;SDS011;24829;49.208;12.080;2024-02-15T09:50:07;9.68;;;7.88;;
39078;SDS011;24829;49.208;12.080;2024-02-15T09:52:36;11.38;;;7.70;;
39078;SDS011;24829;49.208;12.080;2024-02-15T09:55:05;11.93;;;8.68;;
39078;SDS011;24829;49.208;12.080;2024-02-15T09:57:37;10.80;;;7.65;;
39078;SDS011;24829;49.208;12.080;2024-02-15T10:00:11;15.35;;;8.98;;
39078;SDS011;24829;49.208;12.080;2024-02-15T10:02:42;11.00;;;8.10;;
39078;SDS011;24829;49.208;12.080;2024-02-15T10:05:10;13.95;;;8.50;;
39078;SDS011;24829;49.208;12.080;2024-02-15T10:07:37;13.95;;;8.80;;
39078;SDS011;24829;49.208;12.080;2024-02-15T10:10:19;10.40;;;7.93;;
39078;SDS011;24829;49.208;12.080;2024-02-15T10:12:54;7.88;;;6.75;;
39078;SDS011;24829;49.208;12.080;2024-02-15T10:15:27;10.15;;;7.88;;
39078;SDS011;24829;49.208;12.080;2024-02-15T10:17:57;9.23;;;7.40;;
39078;SDS011;24829;49.208;12.080;2024-02-15T10:20:26;8.25;;;6.28;;
39078;SDS011;24829;49.208;12.080;2024-02-15T10:25:25;13.82;;;7.05;;
39078;SDS011;24829;49.208;12.080;2024-02-15T10:27:53;11.38;;;7.07;;
39078;SDS011;24829;49.208;12.080;2024-02-15T10:30:42;13.65;;;8.52;;
39078;SDS011;24829;49.208;12.080;2024-02-15T10:33:10;16.30;;;7.60;;
39078;SDS011;24829;49.208;12.080;2024-02-15T10:35:50;7.93;;;6.07;;
39078;SDS011;24829;49.208;12.080;2024-02-15T10:38:39;8.70;;;4.75;;
39078;SDS011;24829;49.208;12.080;2024-02-15T10:41:05;7.85;;;5.15;;
39078;SDS011;24829;49.208;12.080;2024-02-15T10:43:35;7.97;;;5.30;;
39078;SDS011;24829;49.208;12.080;2024-02-15T10:46:04;7.50;;;5.57;;
39078;SDS011;24829;49.208;12.080;2024-02-15T10:48:32;10.93;;;5.35;;
39078;SDS011;24829;49.208;12.080;2024-02-15T10:50:59;7.53;;;5.53;;
39078;SDS011;24829;49.208;12.080;2024-02-15T10:53:28;8.90;;;5.40;;
39078;SDS011;24829;49.208;12.080;2024-02-15T10:58:32;6.93;;;5.57;;
39078;SDS011;24829;49.208;12.080;2024-02-15T11:01:03;8.38;;;6.45;;
39078;SDS011;24829;49.208;12.080;2024-02-15T11:03:36;9.63;;;5.95;;
39078;SDS011;24829;49.208;12.080;2024-02-15T11:06:06;9.45;;;5.82;;
39078;SDS011;24829;49.208;12.080;2024-02-15T11:08:34;9.68;;;6.65;;
39078;SDS011;24829;49.208;12.080;2024-02-15T11:11:00;9.60;;;6.82;;
39078;SDS011;24829;49.208;12.080;2024-02-15T11:13:29;10.07;;;5.90;;
39078;SDS011;24829;49.208;12.080;2024-02-15T11:15:55;6.57;;;5.63;;
39078;SDS011;24829;49.208;12.080;2024-02-15T11:21:10;9.10;;;6.32;;
39078;SDS011;24829;49.208;12.080;2024-02-15T11:23:36;8.85;;;6.20;;
39078;SDS011;24829;49.208;12.080;2024-02-15T11:26:02;9.88;;;5.82;;
39078;SDS011;24829;49.208;12.080;2024-02-15T11:30:55;10.80;;;6.78;;
39078;SDS011;24829;49.208;12.080;2024-02-15T11:33:27;11.57;;;6.00;;
39078;SDS011;24829;49.208;12.080;2024-02-15T11:46:15;14.07;;;5.88;;
39078;SDS011;24829;49.208;12.080;2024-02-15T11:48:43;7.60;;;4.68;;
39078;SDS011;24829;49.208;12.080;2024-02-15T11:54:10;6.47;;;4.05;;
39078;SDS011;24829;49.208;12.080;2024-02-15T11:59:41;8.20;;;4.15;;
39078;SDS011;24829;49.208;12.080;2024-02-15T12:02:19;9.35;;;4.20;;
39078;SDS011;24829;49.208;12.080;2024-02-15T12:05:04;8.90;;;3.58;;
39078;SDS011;24829;49.208;12.080;2024-02-15T12:07:49;7.70;;;3.42;;
39078;SDS011;24829;49.208;12.080;2024-02-15T12:10:33;6.95;;;3.90;;
39078;SDS011;24829;49.208;12.080;2024-02-15T12:13:18;6.35;;;3.40;;
39078;SDS011;24829;49.208;12.080;2024-02-15T12:16:02;7.35;;;3.28;;
39078;SDS011;24829;49.208;12.080;2024-02-15T12:18:46;5.80;;;2.63;;
39078;SDS011;24829;49.208;12.080;2024-02-15T12:21:17;12.70;;;3.10;;
39078;SDS011;24829;49.208;12.080;2024-02-15T12:23:48;4.35;;;3.13;;
39078;SDS011;24829;49.208;12.080;2024-02-15T12:26:18;5.18;;;2.97;;
39078;SDS011;24829;49.208;12.080;2024-02-15T12:28:44;4.65;;;3.00;;
39078;SDS011;24829;49.208;12.080;2024-02-15T12:31:14;8.43;;;3.58;;
39078;SDS011;24829;49.208;12.080;2024-02-15T12:33:40;5.40;;;2.67;;
39078;SDS011;24829;49.208;12.080;2024-02-15T12:36:07;6.40;;;2.85;;
39078;SDS011;24829;49.208;12.080;2024-02-15T12:38:33;5.43;;;3.03;;
39078;SDS011;24829;49.208;12.080;2024-02-15T12:41:02;5.07;;;2.45;;
39078;SDS011;24829;49.208;12.080;2024-02-15T12:43:28;6.85;;;2.13;;
39078;SDS011;24829;49.208;12.080;2024-02-15T12:45:55;6.72;;;2.60;;
39078;SDS011;24829;49.208;12.080;2024-02-15T12:48:22;5.10;;;2.35;;
39078;SDS011;24829;49.208;12.080;2024-02-15T12:50:47;2.85;;;2.05;;
39078;SDS011;24829;49.208;12.080;2024-02-15T12:53:15;4.93;;;1.95;;
39078;SDS011;24829;49.208;12.080;2024-02-15T12:55:51;3.45;;;1.65;;
39078;SDS011;24829;49.208;12.080;2024-02-15T12:58:20;3.88;;;1.65;;
39078;SDS011;24829;49.208;12.080;2024-02-15T13:00:49;3.67;;;1.27;;
39078;SDS011;24829;49.208;12.080;2024-02-15T13:03:15;5.13;;;1.60;;
39078;SDS011;24829;49.208;12.080;2024-02-15T13:05:43;3.13;;;1.60;;
39078;SDS011;24829;49.208;12.080;2024-02-15T13:08:08;3.35;;;1.20;;
39078;SDS011;24829;49.208;12.080;2024-02-15T13:10:42;3.97;;;1.65;;
39078;SDS011;24829;49.208;12.080;2024-02-15T13:13:08;4.32;;;1.33;;
39078;SDS011;24829;49.208;12.080;2024-02-15T13:15:39;3.63;;;1.40;;
39078;SDS011;24829;49.208;12.080;2024-02-15T13:18:05;4.50;;;1.35;;
39078;SDS011;24829;49.208;12.080;2024-02-15T13:20:34;3.25;;;1.42;;
39078;SDS011;24829;49.208;12.080;2024-02-15T13:23:03;1.98;;;0.90;;
39078;SDS011;24829;49.208;12.080;2024-02-15T13:25:50;3.17;;;0.80;;
39078;SDS011;24829;49.208;12.080;2024-02-15T13:28:17;3.70;;;0.95;;
39078;SDS011;24829;49.208;12.080;2024-02-15T13:30:43;2.35;;;1.08;;
39078;SDS011;24829;49.208;12.080;2024-02-15T13:33:13;14.10;;;5.55;;
39078;SDS011;24829;49.208;12.080;2024-02-15T13:35:39;17.98;;;4.95;;
39078;SDS011;24829;49.208;12.080;2024-02-15T13:38:04;4.15;;;1.10;;
39078;SDS011;24829;49.208;12.080;2024-02-15T13:40:34;4.03;;;0.90;;
39078;SDS011;24829;49.208;12.080;2024-02-15T13:43:00;3.47;;;1.50;;
39078;SDS011;24829;49.208;12.080;2024-02-15T13:45:39;7.10;;;1.58;;
39078;SDS011;24829;49.208;12.080;2024-02-15T13:48:06;5.00;;;1.23;;
39078;SDS011;24829;49.208;12.080;2024-02-15T13:50:32;6.47;;;1.98;;
39078;SDS011;24829;49.208;12.080;2024-02-15T13:52:58;2.67;;;0.95;;
39078;SDS011;24829;49.208;12.080;2024-02-15T13:55:25;2.97;;;1.02;;
39078;SDS011;24829;49.208;12.080;2024-02-15T13:57:51;6.65;;;3.55;;
39078;SDS011;24829;49.208;12.080;2024-02-15T14:00:18;6.45;;;4.65;;
39078;SDS011;24829;49.208;12.080;2024-02-15T14:02:54;21.45;;;16.58;;
39078;SDS011;24829;49.208;12.080;2024-02-15T14:05:22;8.38;;;5.10;;
39078;SDS011;24829;49.208;12.080;2024-02-15T14:10:24;5.80;;;3.38;;
39078;SDS011;24829;49.208;12.080;2024-02-15T14:12:54;17.17;;;10.63;;
39078;SDS011;24829;49.208;12.080;2024-02-15T14:15:23;6.20;;;2.85;;
39078;SDS011;24829;49.208;12.080;2024-02-15T14:17:51;4.15;;;2.10;;
39078;SDS011;24829;49.208;12.080;2024-02-15T14:20:17;3.90;;;1.67;;
39078;SDS011;24829;49.208;12.080;2024-02-15T14:22:44;5.30;;;1.30;;
39078;SDS011;24829;49.208;12.080;2024-02-15T14:25:20;4.45;;;1.50;;
39078;SDS011;24829;49.208;12.080;2024-02-15T14:27:53;5.10;;;1.10;;
39078;SDS011;24829;49.208;12.080;2024-02-15T14:30:19;3.72;;;1.40;;
39078;SDS011;24829;49.208;12.080;2024-02-15T14:33:03;3.53;;;1.30;;
39078;SDS011;24829;49.208;12.080;2024-02-15T14:35:30;4.85;;;1.58;;
39078;SDS011;24829;49.208;12.080;2024-02-15T14:37:59;5.28;;;1.63;;
39078;SDS011;24829;49.208;12.080;2024-02-15T14:40:34;13.43;;;2.63;;
39078;SDS011;24829;49.208;12.080;2024-02-15T14:43:01;4.38;;;1.35;;
39078;SDS011;24829;49.208;12.080;2024-02-15T14:45:29;4.28;;;1.38;;
39078;SDS011;24829;49.208;12.080;2024-02-15T14:48:01;5.43;;;1.10;;
39078;SDS011;24829;49.208;12.080;2024-02-15T14:50:28;2.00;;;0.90;;
39078;SDS011;24829;49.208;12.080;2024-02-15T14:52:54;3.60;;;1.08;;
39078;SDS011;24829;49.208;12.080;2024-02-15T14:55:20;4.97;;;1.05;;
39078;SDS011;24829;49.208;12.080;2024-02-15T14:57:46;2.88;;;0.80;;